Time;durP1;ratioP1;P1;durP2;ratioP2;P2;SDS_P1;SDS_P2;PMS_P1;PMS_P2;Temp;Humidity;BMP_temperature;BMP_pressure;BME280_temperature;BME280_humidity;BME280_pressure;Samples;Min_cycle;Max_cycle;Signal;HPM_P1;HPM_P2
2022/03/21 00:02:19;;;;;;;;;;;16.20;34.90;;;;;;5065976;28;43093;-85
2022/03/21 00:04:44;;;;;;;;;;;16.10;34.80;;;;;;5066228;28;42884;-84
2022/03/21 00:07:10;;;;;;;;;;;16.20;34.90;;;;;;5064240;28;42993;-85
2022/03/21 00:09:35;;;;;;;;;;;16.10;34.30;;;;;;5066435;28;42965;-84
2022/03/21 00:12:02;;;;;;;;;;;16.20;34.90;;;;;;5046416;28;44123;-85
2022/03/21 00:14:28;;;;;;;;;;;16.10;34.40;;;;;;5031200;28;43094;-86
2022/03/21 00:16:53;;;;;;;;;;;19.00;36.30;;;;;;5066865;28;43434;-75
2022/03/21 00:19:19;;;;;;;;;;;16.10;34.80;;;;;;5064419;28;43045;-77
2022/03/21 00:21:44;;;;;;;;;;;16.20;34.90;;;;;;5064062;28;43044;-76
2022/03/21 00:24:10;;;;;;;;;;;16.10;34.90;;;;;;5065795;28;42987;-81
2022/03/21 00:26:35;;;;;;;;;;;16.10;34.40;;;;;;5067640;28;43048;-77
2022/03/21 00:29:01;;;;;;;;;;;16.10;35.00;;;;;;5067673;28;43027;-78
2022/03/21 00:31:27;;;;;;;;;;;16.10;34.90;;;;;;5066237;28;43046;-78
2022/03/21 00:33:52;;;;;;;;;;;16.10;34.80;;;;;;5064992;28;43142;-76
2022/03/21 00:36:18;;;;;;;;;;;16.20;34.90;;;;;;5066092;28;43378;-76
2022/03/21 00:38:43;;;;;;;;;;;16.10;34.90;;;;;;5066065;28;42998;-75
2022/03/21 00:41:09;;;;;;;;;;;16.10;34.90;;;;;;5065932;28;43322;-76
2022/03/21 00:43:35;;;;;;;;;;;16.10;34.90;;;;;;5066112;28;42853;-75
2022/03/21 00:46:01;;;;;;;;;;;16.10;35.00;;;;;;5065161;28;42969;-75
2022/03/21 00:48:28;;;;;;;;;;;16.10;34.90;;;;;;5065290;28;43105;-75
2022/03/21 00:50:54;;;;;;;;;;;16.10;35.50;;;;;;5056420;28;44347;-75
2022/03/21 00:53:20;;;;;;;;;;;16.10;35.00;;;;;;5044835;28;42925;-77
2022/03/21 00:55:46;;;;;;;;;;;16.10;35.00;;;;;;5045475;28;42886;-75
2022/03/21 00:58:12;;;;;;;;;;;16.10;35.00;;;;;;5045678;28;42999;-76
2022/03/21 01:00:37;;;;;;;;;;;16.10;34.70;;;;;;5045274;28;43030;-78
2022/03/21 01:03:03;;;;;;;;;;;16.10;35.30;;;;;;5045678;28;42931;-83
2022/03/21 01:05:29;;;;;;;;;;;16.10;34.70;;;;;;5045495;28;43307;-76
2022/03/21 01:07:55;;;;;;;;;;;16.10;35.10;;;;;;5045047;28;42850;-75
2022/03/21 01:10:21;;;;;;;;;;;16.10;35.20;;;;;;5045482;28;43316;-77
2022/03/21 01:12:47;;;;;;;;;;;16.10;34.60;;;;;;5045233;28;42849;-76
2022/03/21 01:15:14;;;;;;;;;;;16.10;34.60;;;;;;5045413;28;43066;-78
2022/03/21 01:17:42;;;;;;;;;;;16.10;34.60;;;;;;5046437;28;42968;-79
2022/03/21 01:20:08;;;;;;;;;;;16.10;35.60;;;;;;5065766;28;43376;-75
2022/03/21 01:22:34;;;;;;;;;;;16.10;35.10;;;;;;5065692;28;43073;-75
2022/03/21 01:24:59;;;;;;;;;;;16.10;34.70;;;;;;5065490;28;43583;-77
2022/03/21 01:27:25;;;;;;;;;;;16.30;34.80;;;;;;5065359;28;42959;-77
2022/03/21 01:29:50;;;;;;;;;;;16.10;34.60;;;;;;5064724;28;43720;-76
2022/03/21 01:32:16;;;;;;;;;;;16.10;35.20;;;;;;5064427;28;43178;-76
2022/03/21 01:34:42;;;;;;;;;;;16.10;34.70;;;;;;5063468;28;43929;-75
2022/03/21 01:37:07;;;;;;;;;;;16.10;35.30;;;;;;5064561;28;43005;-75
2022/03/21 01:39:33;;;;;;;;;;;16.10;35.40;;;;;;5064646;28;43724;-75
2022/03/21 01:41:59;;;;;;;;;;;16.10;35.50;;;;;;5064199;28;43181;-75
2022/03/21 01:44:24;;;;;;;;;;;16.10;34.80;;;;;;5064038;28;43081;-75
2022/03/21 01:46:50;;;;;;;;;;;16.10;35.40;;;;;;5064036;28;43255;-79
2022/03/21 01:49:15;;;;;;;;;;;16.10;35.50;;;;;;5064105;28;43762;-76
2022/03/21 01:51:42;;;;;;;;;;;16.10;35.40;;;;;;5045840;28;43191;-77
2022/03/21 01:56:52;;;;;;;;;;;16.10;35.40;;;;;;5064791;28;43053;-81
2022/03/21 01:59:21;;;;;;;;;;;16.10;35.60;;;;;;5064265;28;44761;-75
2022/03/21 02:01:48;;;;;;;;;;;16.10;35.40;;;;;;5064647;28;42953;-75
2022/03/21 02:04:13;;;;;;;;;;;16.10;34.90;;;;;;5064167;28;42871;-75
2022/03/21 02:06:42;;;;;;;;;;;16.10;34.90;;;;;;5063924;28;42896;-76
2022/03/21 02:09:07;;;;;;;;;;;16.10;34.90;;;;;;5064383;28;43844;-75
2022/03/21 02:11:33;;;;;;;;;;;16.20;35.50;;;;;;5064902;28;42967;-75
2022/03/21 02:14:00;;;;;;;;;;;16.10;35.50;;;;;;5063906;28;43023;-76
2022/03/21 02:16:26;;;;;;;;;;;16.10;35.40;;;;;;5064209;28;43042;-75
2022/03/21 02:18:52;;;;;;;;;;;16.10;35.50;;;;;;5064589;28;43827;-75
2022/03/21 02:21:27;;;;;;;;;;;16.10;35.40;;;;;;5064371;28;42866;-75
2022/03/21 02:23:56;;;;;;;;;;;16.10;35.40;;;;;;5064205;28;43014;-75
2022/03/21 02:26:22;;;;;;;;;;;16.10;35.50;;;;;;5063884;28;43029;-77
2022/03/21 02:28:48;;;;;;;;;;;16.10;35.40;;;;;;5063429;28;42911;-75
2022/03/21 02:31:14;;;;;;;;;;;16.10;35.50;;;;;;5063956;28;42941;-76
2022/03/21 02:33:40;;;;;;;;;;;16.10;35.00;;;;;;5063590;28;43537;-75
2022/03/21 02:36:07;;;;;;;;;;;16.10;35.10;;;;;;5082979;28;42948;-76
2022/03/21 02:38:33;;;;;;;;;;;16.10;35.60;;;;;;5084852;28;43919;-76
2022/03/21 02:40:59;;;;;;;;;;;16.10;35.20;;;;;;5084627;28;43002;-76
2022/03/21 02:43:24;;;;;;;;;;;16.10;35.60;;;;;;5065848;28;43672;-76
2022/03/21 02:45:50;;;;;;;;;;;16.10;35.10;;;;;;5066070;28;43254;-76
2022/03/21 02:48:18;;;;;;;;;;;16.10;35.60;;;;;;5083951;28;44279;-76
2022/03/21 02:50:56;;;;;;;;;;;16.10;35.20;;;;;;5084120;28;43043;-78
2022/03/21 02:53:21;;;;;;;;;;;16.10;35.60;;;;;;5083623;28;43632;-76
2022/03/21 02:55:52;;;;;;;;;;;16.10;35.20;;;;;;5083055;28;42960;-76
2022/03/21 02:58:18;;;;;;;;;;;16.10;35.20;;;;;;5083202;28;44047;-75
2022/03/21 03:00:43;;;;;;;;;;;16.10;35.10;;;;;;5084067;28;42962;-75
2022/03/21 03:03:09;;;;;;;;;;;16.10;35.60;;;;;;5084073;28;43025;-76
2022/03/21 03:05:34;;;;;;;;;;;16.10;35.20;;;;;;5084131;28;42962;-75
2022/03/21 03:08:02;;;;;;;;;;;16.10;35.80;;;;;;5085107;28;42996;-76
2022/03/21 03:10:27;;;;;;;;;;;16.10;35.80;;;;;;5085898;28;43016;-79
2022/03/21 03:12:53;;;;;;;;;;;16.10;35.70;;;;;;5084438;28;43449;-75
2022/03/21 03:15:18;;;;;;;;;;;16.10;35.70;;;;;;5083699;28;42891;-75
2022/03/21 03:17:44;;;;;;;;;;;16.10;35.80;;;;;;5081606;28;43680;-75
2022/03/21 03:20:10;;;;;;;;;;;16.10;35.80;;;;;;5063219;28;42829;-76
2022/03/21 03:22:36;;;;;;;;;;;16.10;35.80;;;;;;5044466;28;44378;-76
2022/03/21 03:25:03;;;;;;;;;;;16.10;35.70;;;;;;5063979;28;43034;-75
2022/03/21 03:27:28;;;;;;;;;;;16.10;35.80;;;;;;5063341;28;45131;-75
2022/03/21 03:29:55;;;;;;;;;;;16.10;35.30;;;;;;5063569;28;42901;-75
2022/03/21 03:32:21;;;;;;;;;;;16.10;35.30;;;;;;5063137;28;43455;-75
2022/03/21 03:34:46;;;;;;;;;;;16.10;35.90;;;;;;5062989;28;43145;-75
2022/03/21 03:37:13;;;;;;;;;;;16.10;35.80;;;;;;5063241;28;43407;-75
2022/03/21 03:39:38;;;;;;;;;;;16.10;35.40;;;;;;5042804;28;43318;-75
2022/03/21 03:42:04;;;;;;;;;;;16.10;35.90;;;;;;5062365;28;43004;-76
2022/03/21 03:44:29;;;;;;;;;;;16.10;35.40;;;;;;5070649;28;42950;-76
2022/03/21 03:46:55;;;;;;;;;;;16.10;35.90;;;;;;5083384;28;43103;-77
2022/03/21 03:49:21;;;;;;;;;;;16.10;35.90;;;;;;5069144;28;43052;-75
2022/03/21 03:51:46;;;;;;;;;;;16.10;35.90;;;;;;5063244;28;42851;-75
2022/03/21 03:54:12;;;;;;;;;;;16.10;35.90;;;;;;5063226;28;42832;-75
2022/03/21 03:56:37;;;;;;;;;;;16.10;35.90;;;;;;5065423;28;43706;-75
2022/03/21 03:59:03;;;;;;;;;;;16.10;36.10;;;;;;5083080;28;43032;-75
2022/03/21 04:01:28;;;;;;;;;;;16.10;36.00;;;;;;5083794;28;43065;-75
2022/03/21 04:03:54;;;;;;;;;;;16.10;35.50;;;;;;5083394;28;42922;-76
2022/03/21 04:06:22;;;;;;;;;;;16.10;36.10;;;;;;5083216;28;43619;-75
2022/03/21 04:08:48;;;;;;;;;;;16.10;35.90;;;;;;5085254;27;42894;-75
2022/03/21 04:11:14;;;;;;;;;;;16.10;35.50;;;;;;5087015;28;42935;-75
2022/03/21 04:13:40;;;;;;;;;;;16.10;36.00;;;;;;5070409;28;43778;-78
2022/03/21 04:16:06;;;;;;;;;;;16.10;35.50;;;;;;5066971;28;42955;-75
2022/03/21 04:18:31;;;;;;;;;;;16.10;36.10;;;;;;5066167;28;43019;-76
2022/03/21 04:20:57;;;;;;;;;;;16.10;36.10;;;;;;5066686;28;43558;-76
2022/03/21 04:23:22;;;;;;;;;;;16.10;35.40;;;;;;5066522;28;43026;-78
2022/03/21 04:25:48;;;;;;;;;;;16.00;35.40;;;;;;5065765;28;44005;-82
2022/03/21 04:28:14;;;;;;;;;;;16.00;35.40;;;;;;5066168;28;42899;-75
2022/03/21 04:30:40;;;;;;;;;;;16.10;36.00;;;;;;5064922;28;44471;-76
2022/03/21 04:33:09;;;;;;;;;;;16.10;36.00;;;;;;5065157;28;42943;-75
2022/03/21 04:35:34;;;;;;;;;;;16.10;35.60;;;;;;5065958;28;45075;-76
2022/03/21 04:38:00;;;;;;;;;;;16.10;36.10;;;;;;5066093;28;42944;-75
2022/03/21 04:40:26;;;;;;;;;;;16.10;36.10;;;;;;5065832;28;43725;-75
2022/03/21 04:42:51;;;;;;;;;;;16.10;36.10;;;;;;5065880;28;43041;-75
2022/03/21 04:45:17;;;;;;;;;;;16.10;35.60;;;;;;5065852;28;43791;-75
2022/03/21 04:47:45;;;;;;;;;;;16.10;36.20;;;;;;5065984;28;42868;-75
2022/03/21 04:50:11;;;;;;;;;;;16.00;36.10;;;;;;5065554;28;42960;-75
2022/03/21 04:52:37;;;;;;;;;;;16.10;36.20;;;;;;5065877;28;43152;-75
2022/03/21 04:55:03;;;;;;;;;;;16.10;36.30;;;;;;5047205;28;43197;-78
2022/03/21 04:57:29;;;;;;;;;;;16.10;36.20;;;;;;5065489;28;42947;-76
2022/03/21 04:59:55;;;;;;;;;;;16.10;35.70;;;;;;5065885;28;44157;-76
2022/03/21 05:02:21;;;;;;;;;;;16.00;35.60;;;;;;5065482;28;42967;-82
2022/03/21 05:04:46;;;;;;;;;;;16.10;35.80;;;;;;5065295;28;43367;-77
2022/03/21 05:07:12;;;;;;;;;;;16.10;35.70;;;;;;5065016;28;42908;-82
2022/03/21 05:09:39;;;;;;;;;;;16.10;36.20;;;;;;5065369;28;42959;-75
2022/03/21 05:12:05;;;;;;;;;;;16.10;36.30;;;;;;5065949;28;42982;-76
2022/03/21 05:14:30;;;;;;;;;;;16.10;35.80;;;;;;5064700;28;42844;-76
2022/03/21 05:16:56;;;;;;;;;;;16.10;36.20;;;;;;5061855;28;42967;-75
2022/03/21 05:19:21;;;;;;;;;;;16.10;35.80;;;;;;5061509;28;44077;-75
2022/03/21 05:21:47;;;;;;;;;;;16.10;35.80;;;;;;5064367;28;43027;-76
2022/03/21 05:32:25;;;;;;;;;;;16.00;35.80;;;;;;5060267;28;43069;-82
2022/03/21 05:37:35;;;;;;;;;;;16.10;36.40;;;;;;5067685;28;42804;-84
2022/03/21 05:42:44;;;;;;;;;;;16.10;36.40;;;;;;5056666;28;42942;-81
2022/03/21 05:45:11;;;;;;;;;;;16.10;36.50;;;;;;5058844;28;42917;-83
2022/03/21 05:48:50;;;;;;;;;;;16.10;36.50;;;;;;5061366;28;43104;-81
2022/03/21 05:50:22;;;;;;;;;;;16.10;36.50;;;;;;5061693;28;43282;-82
2022/03/21 05:52:47;;;;;;;;;;;16.10;35.90;;;;;;5063347;28;43052;-80
2022/03/21 05:55:13;;;;;;;;;;;16.10;35.90;;;;;;5062170;28;43109;-80
2022/03/21 05:57:38;;;;;;;;;;;16.00;35.80;;;;;;5052679;28;43403;-79
2022/03/21 06:00:23;;;;;;;;;;;16.10;35.80;;;;;;5039645;28;43439;-78
2022/03/21 06:02:49;;;;;;;;;;;16.00;33.80;;;;;;5043979;28;42927;-80
2022/03/21 06:05:14;;;;;;;;;;;15.90;33.50;;;;;;5043871;28;42913;-79
2022/03/21 06:07:40;;;;;;;;;;;15.80;33.00;;;;;;5046907;28;42909;-77
2022/03/21 06:10:06;;;;;;;;;;;15.70;32.90;;;;;;5063072;28;42917;-81
2022/03/21 06:12:31;;;;;;;;;;;15.70;33.50;;;;;;5062615;28;43135;-77
2022/03/21 06:14:57;;;;;;;;;;;15.70;33.20;;;;;;5062307;28;43773;-80
2022/03/21 06:17:22;;;;;;;;;;;15.60;33.10;;;;;;5063627;28;43196;-78
2022/03/21 06:19:48;;;;;;;;;;;15.60;33.20;;;;;;5063780;28;43061;-76
2022/03/21 06:22:13;;;;;;;;;;;15.50;33.10;;;;;;5063683;28;43089;-75
2022/03/21 06:24:39;;;;;;;;;;;15.50;33.10;;;;;;5063543;28;42933;-76
2022/03/21 06:27:04;;;;;;;;;;;15.50;33.30;;;;;;5064317;28;42997;-75
2022/03/21 06:29:30;;;;;;;;;;;15.40;32.70;;;;;;5064174;28;42998;-75
2022/03/21 06:31:56;;;;;;;;;;;15.50;33.00;;;;;;5063600;28;43016;-77
2022/03/21 06:34:21;;;;;;;;;;;15.40;33.00;;;;;;5063172;28;42918;-75
2022/03/21 06:36:47;;;;;;;;;;;15.40;32.30;;;;;;5064042;28;43006;-77
2022/03/21 06:39:12;;;;;;;;;;;15.40;33.10;;;;;;5064368;28;43506;-77
2022/03/21 06:41:38;;;;;;;;;;;15.40;32.30;;;;;;5064628;28;42902;-76
2022/03/21 06:44:04;;;;;;;;;;;15.40;32.90;;;;;;5064509;28;42780;-76
2022/03/21 06:46:29;;;;;;;;;;;15.40;32.90;;;;;;5063798;28;42998;-77
2022/03/21 06:48:55;;;;;;;;;;;15.40;33.20;;;;;;5063534;28;43773;-77
2022/03/21 06:51:20;;;;;;;;;;;15.40;32.40;;;;;;5064357;28;42899;-76
2022/03/21 06:53:46;;;;;;;;;;;15.40;32.70;;;;;;5063950;28;43544;-76
2022/03/21 06:56:11;;;;;;;;;;;15.40;32.90;;;;;;5063489;28;43029;-77
2022/03/21 06:58:37;;;;;;;;;;;15.40;32.70;;;;;;5063250;28;43014;-76
2022/03/21 07:01:02;;;;;;;;;;;15.40;31.80;;;;;;5063369;28;43037;-76
2022/03/21 07:03:28;;;;;;;;;;;15.30;32.30;;;;;;5063679;28;43574;-76
2022/03/21 07:05:54;;;;;;;;;;;15.40;33.00;;;;;;5063689;28;42888;-76
2022/03/21 07:08:20;;;;;;;;;;;15.40;32.60;;;;;;5063681;28;43541;-76
2022/03/21 07:10:46;;;;;;;;;;;15.40;32.50;;;;;;5063807;28;42991;-77
2022/03/21 07:13:12;;;;;;;;;;;15.40;32.40;;;;;;5063787;28;42853;-77
2022/03/21 07:15:37;;;;;;;;;;;15.40;32.50;;;;;;5063202;28;42979;-76
2022/03/21 07:18:03;;;;;;;;;;;15.40;32.10;;;;;;5063008;28;42880;-76
2022/03/21 07:20:29;;;;;;;;;;;15.40;31.50;;;;;;5063443;28;43062;-77
2022/03/21 07:22:55;;;;;;;;;;;15.40;32.00;;;;;;5063587;28;43673;-76
2022/03/21 07:25:21;;;;;;;;;;;15.40;32.10;;;;;;5063971;28;42844;-77
2022/03/21 07:27:46;;;;;;;;;;;15.50;31.50;;;;;;5063045;28;43753;-77
2022/03/21 07:30:12;;;;;;;;;;;15.40;31.90;;;;;;5063103;28;42880;-76
2022/03/21 07:32:38;;;;;;;;;;;15.40;32.10;;;;;;5063012;28;44732;-78
2022/03/21 07:35:04;;;;;;;;;;;15.50;31.40;;;;;;5063452;28;43086;-76
2022/03/21 07:37:39;;;;;;;;;;;15.40;32.30;;;;;;5063446;28;43341;-77
2022/03/21 07:40:05;;;;;;;;;;;15.50;32.10;;;;;;5063931;28;42867;-76
2022/03/21 07:42:31;;;;;;;;;;;15.50;32.30;;;;;;5063828;28;42894;-76
2022/03/21 07:47:41;;;;;;;;;;;15.40;31.80;;;;;;5064556;28;43209;-76
2022/03/21 07:50:07;;;;;;;;;;;15.40;31.30;;;;;;5065120;28;43715;-77
2022/03/21 07:52:33;;;;;;;;;;;15.50;32.00;;;;;;5066156;28;43120;-77
2022/03/21 07:54:59;;;;;;;;;;;15.50;31.40;;;;;;5066621;28;42989;-77
2022/03/21 07:57:25;;;;;;;;;;;15.40;30.80;;;;;;5066464;28;43616;-76
2022/03/21 07:59:51;;;;;;;;;;;15.50;31.50;;;;;;5066650;28;42897;-76
2022/03/21 08:02:19;;;;;;;;;;;15.50;31.70;;;;;;5066272;28;42931;-76
2022/03/21 08:04:46;;;;;;;;;;;15.60;31.30;;;;;;5067161;28;42784;-77
2022/03/21 08:07:12;;;;;;;;;;;15.60;31.50;;;;;;5066484;28;43572;-78
2022/03/21 08:09:38;;;;;;;;;;;15.60;31.40;;;;;;5066627;28;42958;-76
2022/03/21 08:12:03;;;;;;;;;;;15.80;34.20;;;;;;5066355;28;43881;-78
2022/03/21 08:14:29;;;;;;;;;;;15.90;32.40;;;;;;5066670;28;43024;-77
2022/03/21 08:16:54;;;;;;;;;;;15.90;32.00;;;;;;5066281;28;42764;-76
2022/03/21 08:19:20;;;;;;;;;;;15.90;31.20;;;;;;5066686;28;43014;-75
2022/03/21 08:21:46;;;;;;;;;;;15.90;32.70;;;;;;5066235;28;43529;-75
2022/03/21 08:24:15;;;;;;;;;;;15.90;31.50;;;;;;5066436;28;42880;-76
2022/03/21 08:26:40;;;;;;;;;;;15.90;31.00;;;;;;5065902;28;43939;-78
2022/03/21 08:29:06;;;;;;;;;;;16.00;31.80;;;;;;5065957;28;42820;-78
2022/03/21 08:31:32;;;;;;;;;;;15.90;31.40;;;;;;5066092;28;43402;-78
2022/03/21 08:33:57;;;;;;;;;;;15.80;33.20;;;;;;5066123;28;42912;-77
2022/03/21 08:36:23;;;;;;;;;;;15.90;31.70;;;;;;5065606;28;42907;-78
2022/03/21 08:38:49;;;;;;;;;;;15.80;31.00;;;;;;5065614;28;43553;-76
2022/03/21 08:41:16;;;;;;;;;;;15.70;31.00;;;;;;5065826;28;43137;-77
2022/03/21 08:43:42;;;;;;;;;;;15.80;31.60;;;;;;5066006;28;42895;-77
2022/03/21 08:46:07;;;;;;;;;;;15.90;33.90;;;;;;5066059;28;43651;-79
2022/03/21 08:51:24;;;;;;;;;;;15.90;32.30;;;;;;5041420;28;43003;-77
2022/03/21 08:53:51;;;;;;;;;;;16.00;34.70;;;;;;5065254;28;42875;-77
2022/03/21 08:56:17;;;;;;;;;;;16.10;33.60;;;;;;5066065;28;43487;-77
2022/03/21 08:58:42;;;;;;;;;;;16.10;34.30;;;;;;5065484;28;42805;-77
2022/03/21 09:01:08;;;;;;;;;;;16.10;34.00;;;;;;5065857;28;42987;-78
2022/03/21 09:03:33;;;;;;;;;;;16.20;34.50;;;;;;5065578;28;43086;-77
2022/03/21 09:05:59;;;;;;;;;;;16.20;31.90;;;;;;5065569;28;42975;-77
2022/03/21 09:08:24;;;;;;;;;;;16.00;32.50;;;;;;5065395;28;42924;-78
2022/03/21 09:10:52;;;;;;;;;;;16.00;33.10;;;;;;5065442;28;43811;-76
2022/03/21 09:13:18;;;;;;;;;;;16.00;33.30;;;;;;5066014;28;42958;-76
2022/03/21 09:15:43;;;;;;;;;;;16.00;33.20;;;;;;5065615;28;43481;-77
2022/03/21 09:18:09;;;;;;;;;;;16.10;33.40;;;;;;5065238;28;43159;-76
2022/03/21 09:20:35;;;;;;;;;;;16.20;34.60;;;;;;5065194;28;43445;-76
2022/03/21 09:23:00;;;;;;;;;;;16.20;32.10;;;;;;5065448;28;42951;-76
2022/03/21 09:25:26;;;;;;;;;;;16.10;30.40;;;;;;5065109;28;43673;-76
2022/03/21 09:27:51;;;;;;;;;;;16.10;33.50;;;;;;5065493;28;42859;-76
2022/03/21 09:30:17;;;;;;;;;;;16.20;34.60;;;;;;5065316;28;42966;-75
2022/03/21 09:32:43;;;;;;;;;;;16.20;33.90;;;;;;5064778;28;43018;-76
2022/03/21 09:35:08;;;;;;;;;;;16.20;34.40;;;;;;5064777;28;42994;-76
2022/03/21 09:37:34;;;;;;;;;;;16.30;34.40;;;;;;5065630;28;42975;-76
2022/03/21 09:40:00;;;;;;;;;;;16.30;34.40;;;;;;5064556;28;43115;-77
2022/03/21 09:42:25;;;;;;;;;;;16.20;32.80;;;;;;5065156;28;42950;-76
2022/03/21 09:44:53;;;;;;;;;;;16.20;31.80;;;;;;5065170;28;42896;-76
2022/03/21 09:50:07;;;;;;;;;;;16.20;31.60;;;;;;5065120;28;43792;-76
2022/03/21 09:52:33;;;;;;;;;;;16.20;33.30;;;;;;5046685;28;42973;-76
2022/03/21 09:54:59;;;;;;;;;;;16.10;32.80;;;;;;5064561;28;43919;-77
2022/03/21 09:57:26;;;;;;;;;;;16.20;34.40;;;;;;5064796;28;42902;-76
2022/03/21 09:59:52;;;;;;;;;;;16.20;32.30;;;;;;5064543;28;43281;-77
2022/03/21 10:02:18;;;;;;;;;;;16.20;34.20;;;;;;5046797;28;42881;-77
2022/03/21 10:04:44;;;;;;;;;;;16.20;30.90;;;;;;5064885;28;43010;-76
2022/03/21 10:07:10;;;;;;;;;;;16.20;34.30;;;;;;5063152;28;42977;-76
2022/03/21 10:09:36;;;;;;;;;;;16.20;33.40;;;;;;5063983;28;42983;-77
2022/03/21 10:12:03;;;;;;;;;;;16.30;34.60;;;;;;5064104;28;42955;-77
2022/03/21 10:14:33;;;;;;;;;;;16.30;33.50;;;;;;5063877;28;42969;-77
2022/03/21 10:17:00;;;;;;;;;;;16.30;31.90;;;;;;5063675;28;42892;-76
2022/03/21 10:19:26;;;;;;;;;;;16.20;33.80;;;;;;5063543;28;43024;-76
2022/03/21 10:22:02;;;;;;;;;;;16.20;32.90;;;;;;5064395;28;43005;-76
2022/03/21 10:24:32;;;;;;;;;;;16.30;31.60;;;;;;5063791;28;42999;-76
2022/03/21 10:26:58;;;;;;;;;;;16.20;33.30;;;;;;5063982;28;43099;-76
2022/03/21 10:29:24;;;;;;;;;;;16.20;30.90;;;;;;5063598;28;43568;-77
2022/03/21 10:31:52;;;;;;;;;;;16.20;32.30;;;;;;5064143;28;42923;-77
2022/03/21 10:34:20;;;;;;;;;;;16.20;31.80;;;;;;5064665;28;43782;-76
2022/03/21 10:36:57;;;;;;;;;;;16.20;31.20;;;;;;5064526;28;43033;-76
2022/03/21 10:39:23;;;;;;;;;;;16.10;31.20;;;;;;5064478;28;42784;-77
2022/03/21 10:41:53;;;;;;;;;;;16.10;32.30;;;;;;5064531;28;42879;-78
2022/03/21 10:44:20;;;;;;;;;;;16.20;31.80;;;;;;5063899;28;43465;-76
2022/03/21 10:46:50;;;;;;;;;;;16.20;31.90;;;;;;5064034;28;42956;-77
2022/03/21 10:49:25;;;;;;;;;;;16.20;32.80;;;;;;5063777;28;44133;-76
2022/03/21 10:51:51;;;;;;;;;;;16.30;34.00;;;;;;5064193;28;43363;-75
2022/03/21 10:54:36;;;;;;;;;;;16.30;31.30;;;;;;5063519;28;43204;-76
2022/03/21 10:57:02;;;;;;;;;;;16.20;32.40;;;;;;5063844;28;42918;-77
2022/03/21 10:59:27;;;;;;;;;;;16.20;31.90;;;;;;5064307;28;43685;-78
2022/03/21 11:02:28;;;;;;;;;;;16.30;33.90;;;;;;5063371;28;43064;-76
2022/03/21 11:04:54;;;;;;;;;;;16.30;32.60;;;;;;4980665;28;43172;-77
2022/03/21 11:07:19;;;;;;;;;;;16.30;33.60;;;;;;4981607;28;42966;-76
2022/03/21 11:09:45;;;;;;;;;;;16.30;33.90;;;;;;4981245;28;43433;-77
2022/03/21 11:12:10;;;;;;;;;;;16.30;32.40;;;;;;4981512;28;43103;-76
2022/03/21 11:14:38;;;;;;;;;;;16.20;31.30;;;;;;4981574;28;44263;-76
2022/03/21 11:17:05;;;;;;;;;;;16.30;33.90;;;;;;4981849;28;42945;-76
2022/03/21 11:19:31;;;;;;;;;;;16.30;31.10;;;;;;4984964;28;43041;-76
2022/03/21 11:21:56;;;;;;;;;;;16.20;31.70;;;;;;4984921;28;43161;-76
2022/03/21 11:24:22;;;;;;;;;;;16.20;33.70;;;;;;4983678;28;44309;-76
2022/03/21 11:27:06;;;;;;;;;;;16.30;33.00;;;;;;4968718;28;43031;-76
2022/03/21 11:29:37;;;;;;;;;;;16.30;33.00;;;;;;4985275;28;43066;-76
2022/03/21 11:32:08;;;;;;;;;;;16.30;31.90;;;;;;4984081;28;43183;-76
2022/03/21 11:34:36;;;;;;;;;;;16.30;30.70;;;;;;4984316;28;43386;-76
2022/03/21 11:37:01;;;;;;;;;;;16.20;32.70;;;;;;4984812;28;43077;-76
2022/03/21 11:39:27;;;;;;;;;;;16.20;31.70;;;;;;5044239;28;43383;-76
2022/03/21 11:42:00;;;;;;;;;;;16.30;30.80;;;;;;5067030;28;42854;-76
2022/03/21 11:44:25;;;;;;;;;;;16.20;31.60;;;;;;5066613;28;43485;-76
2022/03/21 11:46:51;;;;;;;;;;;16.20;31.90;;;;;;5066423;28;42808;-77
2022/03/21 11:49:16;;;;;;;;;;;16.20;31.80;;;;;;5080418;28;44390;-76
2022/03/21 11:51:43;;;;;;;;;;;16.20;30.80;;;;;;5087216;28;42887;-76
2022/03/21 11:54:26;;;;;;;;;;;16.20;31.60;;;;;;5087267;28;43608;-76
2022/03/21 11:56:56;;;;;;;;;;;16.20;32.30;;;;;;5087157;28;43102;-76
2022/03/21 11:59:48;;;;;;;;;;;16.20;31.30;;;;;;5086797;28;42933;-76
2022/03/21 12:02:14;;;;;;;;;;;16.20;31.20;;;;;;5082746;28;42894;-76
2022/03/21 12:04:40;;;;;;;;;;;16.20;32.10;;;;;;5086400;28;43548;-76
2022/03/21 12:07:11;;;;;;;;;;;16.20;30.40;;;;;;5086130;28;43337;-76
2022/03/21 12:09:43;;;;;;;;;;;16.20;32.40;;;;;;5086972;28;43504;-75
2022/03/21 12:12:10;;;;;;;;;;;16.30;31.80;;;;;;5087028;28;42937;-75
2022/03/21 12:14:37;;;;;;;;;;;16.30;33.20;;;;;;5086428;28;42978;-75
2022/03/21 12:17:12;;;;;;;;;;;16.30;32.90;;;;;;5086866;28;42922;-75
2022/03/21 12:19:58;;;;;;;;;;;16.40;33.40;;;;;;5086950;28;42871;-75
2022/03/21 12:22:30;;;;;;;;;;;16.40;33.30;;;;;;5086528;28;43093;-75
2022/03/21 12:25:06;;;;;;;;;;;16.40;32.60;;;;;;5086370;28;43848;-76
2022/03/21 12:27:52;;;;;;;;;;;16.40;33.40;;;;;;5080780;28;43066;-75
2022/03/21 12:30:21;;;;;;;;;;;16.40;33.40;;;;;;5056225;28;42994;-77
2022/03/21 12:32:56;;;;;;;;;;;16.40;33.30;;;;;;5047460;28;43053;-78
2022/03/21 12:35:28;;;;;;;;;;;16.40;33.20;;;;;;5065788;28;43589;-79
2022/03/21 12:37:53;;;;;;;;;;;16.40;33.10;;;;;;5065480;28;43035;-79
2022/03/21 12:40:19;;;;;;;;;;;16.40;33.20;;;;;;5065792;28;43609;-79
2022/03/21 12:42:46;;;;;;;;;;;16.40;32.80;;;;;;5047027;28;43069;-80
2022/03/21 12:45:18;;;;;;;;;;;16.40;33.30;;;;;;5065037;28;42849;-78
2022/03/21 12:47:43;;;;;;;;;;;16.50;32.50;;;;;;5064690;28;43092;-79
2022/03/21 12:50:09;;;;;;;;;;;16.50;32.30;;;;;;5057426;28;43058;-75
2022/03/21 12:52:35;;;;;;;;;;;16.40;33.10;;;;;;5045901;28;43023;-77
2022/03/21 12:55:01;;;;;;;;;;;16.40;33.30;;;;;;5064312;28;43599;-77
2022/03/21 12:57:27;;;;;;;;;;;16.40;32.10;;;;;;5063837;28;43045;-78
2022/03/21 12:59:53;;;;;;;;;;;16.40;33.50;;;;;;5063767;28;43062;-77
2022/03/21 13:02:23;;;;;;;;;;;16.50;31.90;;;;;;5064934;28;43210;-78
2022/03/21 13:10:34;;;;;;;;;;;16.40;32.70;;;;;;5062815;28;43186;-79
2022/03/21 13:13:01;;;;;;;;;;;16.40;33.40;;;;;;5061643;28;43378;-79
2022/03/21 13:15:28;;;;;;;;;;;16.50;33.40;;;;;;5063343;28;43526;-78
2022/03/21 13:17:57;;;;;;;;;;;16.50;33.40;;;;;;5063922;28;42923;-79
2022/03/21 13:20:27;;;;;;;;;;;16.50;33.50;;;;;;5063968;28;42985;-79
2022/03/21 13:22:56;;;;;;;;;;;16.50;33.60;;;;;;5064395;28;42960;-79
2022/03/21 13:25:23;;;;;;;;;;;16.50;33.50;;;;;;5062015;28;42793;-79
2022/03/21 13:27:50;;;;;;;;;;;16.50;33.60;;;;;;5064545;28;42970;-78
2022/03/21 13:30:15;;;;;;;;;;;16.40;33.10;;;;;;5064177;28;43805;-81
2022/03/21 13:32:42;;;;;;;;;;;16.50;33.70;;;;;;5064110;28;43006;-78
2022/03/21 13:35:07;;;;;;;;;;;16.50;33.70;;;;;;5064431;28;43006;-80
2022/03/21 13:37:33;;;;;;;;;;;16.50;33.80;;;;;;5064445;28;42864;-79
2022/03/21 13:39:58;;;;;;;;;;;16.50;33.90;;;;;;5063946;28;43045;-80
2022/03/21 13:42:24;;;;;;;;;;;16.50;33.80;;;;;;5063914;28;43830;-80
2022/03/21 13:44:50;;;;;;;;;;;16.50;33.80;;;;;;5045663;28;44148;-80
2022/03/21 13:47:16;;;;;;;;;;;16.50;33.90;;;;;;5064807;28;43066;-79
2022/03/21 13:49:46;;;;;;;;;;;16.50;33.90;;;;;;5060646;28;43108;-79
2022/03/21 13:52:12;;;;;;;;;;;16.50;33.80;;;;;;5064366;28;43005;-79
2022/03/21 13:55:07;;;;;;;;;;;16.50;33.50;;;;;;5062966;28;43074;-79
2022/03/21 13:57:43;;;;;;;;;;;16.50;33.90;;;;;;5049051;28;43320;-79
2022/03/21 14:00:10;;;;;;;;;;;16.50;33.90;;;;;;5064053;28;43392;-80
2022/03/21 14:02:54;;;;;;;;;;;16.50;34.00;;;;;;5063891;28;43098;-79
2022/03/21 14:05:26;;;;;;;;;;;16.50;33.50;;;;;;5056929;28;43942;-79
2022/03/21 14:08:07;;;;;;;;;;;16.50;34.00;;;;;;5064211;28;43111;-80
2022/03/21 14:10:37;;;;;;;;;;;16.50;33.80;;;;;;5064181;28;42884;-79
2022/03/21 14:13:11;;;;;;;;;;;16.50;34.00;;;;;;5064321;28;43223;-79
2022/03/21 14:15:36;;;;;;;;;;;16.50;34.00;;;;;;5063975;28;42942;-79
2022/03/21 14:18:04;;;;;;;;;;;16.50;34.10;;;;;;5064339;28;43128;-79
2022/03/21 14:20:30;;;;;;;;;;;16.50;33.60;;;;;;5063368;28;42925;-79
2022/03/21 14:22:56;;;;;;;;;;;16.50;33.80;;;;;;5060446;28;43132;-79
2022/03/21 14:28:05;;;;;;;;;;;16.50;34.10;;;;;;5063796;28;42855;-78
2022/03/21 14:30:30;;;;;;;;;;;16.50;33.60;;;;;;5063260;28;43075;-78
2022/03/21 14:32:56;;;;;;;;;;;16.50;34.30;;;;;;5051595;28;42983;-79
2022/03/21 14:35:22;;;;;;;;;;;16.50;33.60;;;;;;5042492;28;43968;-80
2022/03/21 14:37:47;;;;;;;;;;;16.50;34.20;;;;;;5043355;28;43537;-79
2022/03/21 14:40:13;;;;;;;;;;;16.50;34.20;;;;;;5025353;28;44489;-80
2022/03/21 14:42:40;;;;;;;;;;;16.50;34.20;;;;;;5055782;28;42873;-79
2022/03/21 14:45:06;;;;;;;;;;;16.50;34.20;;;;;;5063730;28;42963;-79
2022/03/21 14:47:31;;;;;;;;;;;16.50;34.20;;;;;;5062140;28;42998;-80
2022/03/21 14:49:57;;;;;;;;;;;16.50;33.80;;;;;;5060232;28;43463;-79